Airport ICAO


18:58 UTC

15°C

Clear skies


An affordable passengers' Moving Map for your aircraft. Made for the iPad and the iPhone
More information here

LFMN Cote D'Azur


Nice FRANCE   VFR CAVOK


METAR LFMN 231830Z VRB03KT CAVOK 15/06 Q1022 NOSIG 0h28min

TAF LFMN 231400Z 2315/2421 18005KT CAVOK BECMG 2320/2322 34010KT BECMG 2408/2410 16005KT PROB30 TEMPO 2415/2421 3000 BR BKN007 4h58min





NOTAMS

OPEN